To NAV CANADA Home Page Login to a new session Search on AWWS site Feedback and Comments Disclaimer Vers la page française équivalente Tips FAQ What's new on the site To the Forecasts and Observations / NOTAM section To "File a Flight Plan" website Publications and other links Update of the User's profile FIC Telephone Numbers My Weather Data Folder Route Weather Data Regional Weather Data Local Weather Data To the Forecasts and Observations / NOTAM section
Request Generated 05/01/2016 at 19:23:21 UTC . Weather information available at that time is displayed.

METAR/TAF

TORONTO/BILLY BISHOP TORONTO CITY AIRPORT/ON    (show WxCam)

SPECI CYTZ 011915Z AUTO 05018KT 6SM BR OVC005 08/08 A2997 RMK SLP153=
METAR CYTZ 011900Z AUTO 06019KT 4SM BR OVC005 08/07 A2998 RMK SLP156=
SPECI CYTZ 011837Z AUTO 06017G25KT 4SM BR BKN005 OVC009 08/07 A2998
RMK SLP156=
SPECI CYTZ 011826Z AUTO 06021G26KT 5SM -RA BR BKN009 OVC012 08/08
A2998 RMK SLP154=
SPECI CYTZ 011819Z AUTO 06020KT 5SM BR BKN009 OVC012 08/08 A2997 RMK
SLP153=
SPECI CYTZ 011803Z AUTO 06014G21KT 6SM BR OVC009 10/09 A2996 RMK
SLP150=
METAR CYTZ 011800Z AUTO 06016G21KT 4SM BR OVC009 09/08 A2996 RMK
SLP150=
SPECI CYTZ 011738Z AUTO 05016G23KT 3SM BR OVC007 09/09 A2996 RMK
SLP149=
SPECI CYTZ 011703Z AUTO 05019G24KT 3SM -RA BR OVC005 09/08 A2997 RMK
SLP153=
METAR CYTZ 011700Z AUTO 05019G24KT 2 1/2SM -RA BR OVC005 09/08 A2997
RMK SLP153=

TAF AMD CYTZ 011628Z 0116/0214 06020G31KT 2SM -RA BR OVC005 TEMPO
0116/0120 6SM BR OVC010
FM012000 05013KT 6SM BR OVC012
FM020000 36012KT P6SM OVC020
FM021300 36009KT 5SM -RA BR BKN015 BKN090
RMK FCST BASED ON AUTO OBS. NXT FCST BY 012000Z=
Your time UTC time
Weather data provided by Environment Canada and NAV CANADA